Time;durP1;ratioP1;P1;durP2;ratioP2;P2;SDS_P1;SDS_P2;PMS_P1;PMS_P2;Temp;Humidity;BMP_temperature;BMP_pressure;BME280_temperature;BME280_humidity;BME280_pressure;Samples;Min_cycle;Max_cycle;Signal;HPM_P1;HPM_P2
2023/03/18 00:01:14;;;;;;;17.20;8.00;;;;;;;0.02;62.14;101887.86;110019;1240;73316;-78
2023/03/18 00:03:44;;;;;;;18.40;8.80;;;;;;;0.01;62.26;101883.23;109821;1238;70913;-77
2023/03/18 00:06:17;;;;;;;17.30;9.00;;;;;;;0.00;62.49;101882.39;110061;1238;68080;-78
2023/03/18 00:08:47;;;;;;;16.30;8.80;;;;;;;-0.02;62.10;101881.89;109813;1244;71334;-78
2023/03/18 00:11:19;;;;;;;20.00;9.70;;;;;;;-0.02;62.25;101883.43;110096;1238;58078;-78
2023/03/18 00:13:48;;;;;;;18.90;9.00;;;;;;;0.05;62.18;101883.20;110170;1238;58838;-77
2023/03/18 00:16:18;;;;;;;18.40;8.40;;;;;;;0.11;62.22;101883.99;109924;1238;70746;-77
2023/03/18 00:18:47;;;;;;;19.80;9.60;;;;;;;0.14;62.27;101879.67;110136;1238;70247;-77
2023/03/18 00:21:16;;;;;;;18.80;9.20;;;;;;;0.17;62.41;101874.67;110208;1238;67801;-77
2023/03/18 00:23:47;;;;;;;19.70;8.90;;;;;;;0.13;62.11;101873.70;110086;1238;74441;-78
2023/03/18 00:26:16;;;;;;;19.90;11.10;;;;;;;0.16;62.30;101868.85;110141;1240;59152;-77
2023/03/18 00:28:45;;;;;;;22.90;9.60;;;;;;;0.21;63.10;101869.33;110159;1238;60136;-78
2023/03/18 00:31:14;;;;;;;20.50;9.10;;;;;;;0.33;62.18;101866.79;110108;1238;70869;-78
2023/03/18 00:33:46;;;;;;;18.80;8.90;;;;;;;0.41;61.81;101864.65;109973;1238;70236;-78
2023/03/18 00:36:17;;;;;;;22.20;9.80;;;;;;;0.45;61.67;101864.26;110160;1238;68611;-77
2023/03/18 00:38:49;;;;;;;15.50;7.90;;;;;;;0.45;62.18;101860.65;109945;1242;73843;-77
2023/03/18 00:41:18;;;;;;;21.50;10.00;;;;;;;0.55;61.58;101861.91;110201;1238;58183;-77
2023/03/18 00:43:51;;;;;;;20.30;9.60;;;;;;;0.52;62.50;101863.30;110201;1238;59557;-75
2023/03/18 00:46:32;;;;;;;15.90;9.50;;;;;;;0.58;62.68;101859.63;109909;1238;71517;-77
2023/03/18 00:49:06;;;;;;;20.10;9.00;;;;;;;0.68;61.75;101857.61;110198;1238;72094;-79
2023/03/18 00:51:36;;;;;;;18.20;8.90;;;;;;;0.76;61.43;101856.12;109985;1238;69110;-78
2023/03/18 00:54:08;;;;;;;17.10;8.10;;;;;;;0.81;60.95;101855.91;109950;1238;71101;-77
2023/03/18 00:56:38;;;;;;;14.70;8.00;;;;;;;0.88;60.95;101853.58;109961;1242;58000;-78
2023/03/18 00:59:07;;;;;;;16.70;8.00;;;;;;;0.88;61.09;101849.13;109853;1238;59569;-77
2023/03/18 01:01:36;;;;;;;14.80;7.20;;;;;;;0.89;61.23;101850.13;109910;1238;70917;-77
2023/03/18 01:04:06;;;;;;;15.60;7.70;;;;;;;0.90;61.56;101849.60;110108;1238;70451;-77
2023/03/18 01:06:37;;;;;;;14.10;6.70;;;;;;;0.81;61.76;101842.88;109844;1238;69501;-76
2023/03/18 01:09:08;;;;;;;17.60;7.20;;;;;;;0.83;61.86;101850.20;110010;1238;73408;-78
2023/03/18 01:11:38;;;;;;;16.30;7.00;;;;;;;0.82;62.18;101850.06;109777;1243;60003;-78
2023/03/18 01:14:07;;;;;;;13.00;6.60;;;;;;;0.84;62.30;101847.98;110032;1238;60991;-79
2023/03/18 01:16:36;;;;;;;15.10;7.50;;;;;;;0.79;62.40;101846.83;109809;1238;72060;-78
2023/03/18 01:19:05;;;;;;;16.40;6.90;;;;;;;0.77;62.56;101842.39;110049;1239;71517;-78
2023/03/18 01:21:34;;;;;;;17.10;7.20;;;;;;;0.77;62.17;101842.08;109966;1241;70437;-78
2023/03/18 01:24:03;;;;;;;14.60;7.20;;;;;;;0.76;62.07;101840.02;109953;1238;73762;-78
2023/03/18 01:26:33;;;;;;;14.80;6.70;;;;;;;0.85;62.17;101841.60;109780;1242;59238;-76
2023/03/18 01:29:03;;;;;;;17.00;7.30;;;;;;;0.89;62.07;101842.58;109953;1238;59699;-76
2023/03/18 01:31:33;;;;;;;13.30;7.00;;;;;;;0.93;62.14;101844.25;109755;1238;72729;-82
2023/03/18 01:34:06;;;;;;;16.20;6.60;;;;;;;0.96;62.48;101842.47;109799;1242;71090;-77
2023/03/18 01:36:50;;;;;;;15.60;6.90;;;;;;;0.96;62.35;101842.98;109808;1242;69630;-78
2023/03/18 01:39:22;;;;;;;12.40;6.50;;;;;;;0.96;62.26;101845.56;109697;1238;74278;-78
2023/03/18 01:41:51;;;;;;;15.50;7.20;;;;;;;0.95;62.08;101844.20;109959;1241;60793;-78
2023/03/18 01:44:26;;;;;;;16.40;7.20;;;;;;;0.95;62.30;101842.33;109861;1238;59223;-78
2023/03/18 01:46:56;;;;;;;13.70;7.30;;;;;;;0.95;63.30;101846.77;109985;1238;73434;-79
2023/03/18 01:49:33;;;;;;;11.20;6.70;;;;;;;1.04;63.01;101844.76;109961;1238;72636;-78
2023/03/18 01:52:12;;;;;;;14.40;7.50;;;;;;;1.17;62.04;101846.11;109822;1238;70086;-77
2023/03/18 01:55:09;;;;;;;19.10;8.90;;;;;;;1.19;61.87;101849.52;109826;1238;74213;-79
2023/03/18 01:57:38;;;;;;;16.00;6.90;;;;;;;1.21;62.39;101848.80;110056;1241;60910;-78
2023/03/18 02:00:09;;;;;;;15.20;6.80;;;;;;;1.21;63.92;101850.17;110062;1238;61582;-77
2023/03/18 02:02:44;;;;;;;13.90;5.80;;;;;;;1.31;62.85;101852.25;109754;1238;71264;-78
2023/03/18 02:05:21;;;;;;;15.30;7.10;;;;;;;1.43;62.26;101855.16;109793;1242;70316;-77
2023/03/18 02:07:51;;;;;;;14.00;6.50;;;;;;;1.54;61.60;101857.39;109826;1238;68625;-76
2023/03/18 02:10:23;;;;;;;14.30;7.40;;;;;;;1.56;61.40;101858.03;109592;1244;72488;-80
2023/03/18 02:13:01;;;;;;;13.30;7.40;;;;;;;1.46;61.85;101862.81;109775;1241;59706;-78
2023/03/18 02:15:43;;;;;;;12.90;7.00;;;;;;;1.50;61.71;101862.41;109832;1238;62366;-77
2023/03/18 02:18:20;;;;;;;14.00;7.00;;;;;;;1.57;61.39;101860.41;110069;1238;71640;-77
2023/03/18 02:21:02;;;;;;;13.00;7.10;;;;;;;1.51;61.41;101853.81;109730;1238;71384;-77
2023/03/18 02:23:47;;;;;;;14.60;7.10;;;;;;;1.48;61.92;101860.39;109822;1238;69993;-79
2023/03/18 02:26:34;;;;;;;12.40;6.40;;;;;;;1.51;62.03;101861.52;110018;1238;74149;-78
2023/03/18 02:29:06;;;;;;;15.20;7.40;;;;;;;1.54;62.43;101863.54;109697;1238;60874;-80
2023/03/18 02:31:45;;;;;;;11.70;6.10;;;;;;;1.64;61.66;101864.59;109792;1238;60444;-78
2023/03/18 02:34:15;;;;;;;11.50;6.40;;;;;;;1.72;61.73;101859.65;109917;1239;71602;-79
2023/03/18 02:36:45;;;;;;;14.40;6.70;;;;;;;1.71;61.77;101858.97;109919;1239;70457;-76
2023/03/18 02:39:15;;;;;;;16.30;7.90;;;;;;;1.63;61.85;101858.59;109780;1238;70456;-78
2023/03/18 02:41:44;;;;;;;15.10;7.30;;;;;;;1.64;61.70;101853.58;109603;1238;71827;-74
2023/03/18 02:44:13;;;;;;;13.50;7.10;;;;;;;1.69;62.00;101853.50;109584;1241;58066;-76
2023/03/18 02:47:10;;;;;;;16.00;7.30;;;;;;;1.66;62.12;101858.20;109723;1238;60467;-78
2023/03/18 02:49:40;;;;;;;14.40;7.70;;;;;;;1.63;62.49;101856.17;109823;1241;72110;-78
2023/03/18 02:52:09;;;;;;;16.60;7.60;;;;;;;1.61;63.72;101860.86;109678;1238;71380;-76
2023/03/18 02:54:38;;;;;;;15.00;8.10;;;;;;;1.63;64.24;101868.03;109724;1238;70879;-77
2023/03/18 02:57:06;;;;;;;12.70;6.20;;;;;;;1.74;63.41;101866.82;109711;1238;74223;-78
2023/03/18 02:59:36;;;;;;;17.50;7.00;;;;;;;1.89;63.25;101867.24;109482;1244;59500;-76
2023/03/18 03:02:05;;;;;;;15.70;6.50;;;;;;;1.82;63.75;101869.09;109738;1238;59948;-76
2023/03/18 03:04:34;;;;;;;15.00;6.90;;;;;;;1.74;63.27;101864.41;109735;1238;73469;-76
2023/03/18 03:07:03;;;;;;;12.80;5.80;;;;;;;1.68;63.18;101866.76;109747;1238;71680;-77
2023/03/18 03:09:41;;;;;;;17.20;6.50;;;;;;;1.69;63.07;101860.90;109597;1238;68998;-77
2023/03/18 03:12:11;;;;;;;18.10;6.90;;;;;;;1.68;64.09;101855.94;109751;1241;71904;-78
2023/03/18 03:14:44;;;;;;;16.10;7.10;;;;;;;1.68;64.69;101857.64;109606;1242;57986;-78
2023/03/18 03:17:14;;;;;;;16.30;7.60;;;;;;;1.73;64.91;101858.08;109740;1239;58712;-77
2023/03/18 03:19:44;;;;;;;15.10;7.70;;;;;;;1.74;65.09;101858.41;109594;1238;73481;-77
2023/03/18 03:22:16;;;;;;;16.00;7.80;;;;;;;1.81;64.81;101852.78;109838;1239;70590;-79
2023/03/18 03:24:47;;;;;;;18.40;7.80;;;;;;;1.86;64.71;101852.52;109749;1238;70496;-77
2023/03/18 03:27:16;;;;;;;15.40;8.10;;;;;;;1.92;64.62;101854.30;109526;1244;71522;-78
2023/03/18 03:29:45;;;;;;;16.80;8.00;;;;;;;1.95;64.73;101854.59;109888;1241;58174;-75
2023/03/18 03:32:14;;;;;;;15.40;7.60;;;;;;;1.98;65.14;101855.73;109781;1238;61154;-78
2023/03/18 03:34:43;;;;;;;14.30;7.40;;;;;;;2.00;64.47;101846.92;109642;1243;71231;-77
2023/03/18 03:37:12;;;;;;;12.70;7.00;;;;;;;2.08;64.08;101851.06;109791;1238;61621;-77
2023/03/18 03:39:41;;;;;;;14.80;7.40;;;;;;;2.20;63.56;101846.40;109799;1241;67832;-78
2023/03/18 03:42:10;;;;;;;14.70;6.50;;;;;;;2.29;63.10;101846.72;109899;1238;71013;-78
2023/03/18 03:44:39;;;;;;;14.50;6.90;;;;;;;2.29;63.09;101854.28;109893;1241;57636;-77
2023/03/18 03:47:09;;;;;;;15.40;6.80;;;;;;;2.27;63.19;101853.63;109863;1240;58789;-80
2023/03/18 03:49:38;;;;;;;10.10;5.80;;;;;;;2.24;63.41;101856.80;109919;1238;72582;-77
2023/03/18 03:52:07;;;;;;;13.10;6.00;;;;;;;2.23;63.71;101856.98;109903;1238;71880;-78
2023/03/18 03:54:37;;;;;;;12.40;6.40;;;;;;;2.19;63.97;101855.69;109659;1238;69042;-78
2023/03/18 03:57:06;;;;;;;13.30;6.10;;;;;;;2.15;64.14;101864.53;109665;1238;73483;-78
2023/03/18 03:59:35;;;;;;;10.70;5.50;;;;;;;2.16;64.37;101863.83;109855;1241;58473;-77
2023/03/18 04:02:17;;;;;;;11.50;6.50;;;;;;;2.17;64.39;101860.89;109938;1238;61226;-78
2023/03/18 04:04:46;;;;;;;12.20;6.60;;;;;;;2.18;64.43;101858.96;109911;1238;74873;-78
2023/03/18 04:07:23;;;;;;;14.80;7.50;;;;;;;2.17;64.84;101866.03;109965;1238;72604;-80
2023/03/18 04:09:52;;;;;;;15.60;7.40;;;;;;;2.13;65.98;101867.13;109910;1238;71126;-78
2023/03/18 04:12:21;;;;;;;12.70;6.80;;;;;;;2.17;65.76;101861.05;109978;1238;74031;-77
2023/03/18 04:14:55;;;;;;;16.70;7.30;;;;;;;2.25;65.97;101861.05;109895;1241;57181;-77
2023/03/18 04:17:24;;;;;;;18.00;6.80;;;;;;;2.32;65.75;101860.42;109764;1243;57199;-78
2023/03/18 04:19:53;;;;;;;18.30;7.60;;;;;;;2.40;65.34;101860.95;109862;1238;62955;-78
2023/03/18 04:22:23;;;;;;;13.60;6.80;;;;;;;2.46;65.62;101860.31;109909;1238;72111;-78
2023/03/18 04:24:52;;;;;;;16.70;7.40;;;;;;;2.53;65.52;101863.44;109999;1238;70791;-77
2023/03/18 04:27:21;;;;;;;16.20;7.30;;;;;;;2.58;65.54;101857.30;109996;1238;74068;-80
2023/03/18 04:29:50;;;;;;;17.30;7.50;;;;;;;2.66;65.54;101861.09;109916;1241;57206;-79
2023/03/18 04:32:20;;;;;;;14.00;6.80;;;;;;;2.75;65.95;101861.08;109818;1238;61193;-79
2023/03/18 04:34:49;;;;;;;18.60;7.70;;;;;;;2.79;66.59;101865.30;109933;1242;64543;-79
2023/03/18 04:37:19;;;;;;;14.10;7.00;;;;;;;2.92;65.33;101862.95;109837;1242;70243;-77
2023/03/18 04:39:50;;;;;;;14.10;6.40;;;;;;;3.02;65.20;101861.52;109972;1238;69867;-78
2023/03/18 04:42:18;;;;;;;14.20;5.60;;;;;;;3.02;65.19;101863.05;109930;1238;72848;-77
2023/03/18 04:44:47;;;;;;;13.20;7.10;;;;;;;3.05;65.55;101868.49;109896;1241;57832;-78
2023/03/18 04:47:16;;;;;;;18.40;6.50;;;;;;;3.02;66.85;101871.34;109929;1240;57148;-79
2023/03/18 04:49:45;;;;;;;18.50;7.70;;;;;;;3.05;67.07;101871.27;109912;1238;72985;-79
2023/03/18 04:52:15;;;;;;;13.80;6.80;;;;;;;3.08;67.40;101872.23;109902;1238;71780;-78
2023/03/18 04:54:44;;;;;;;14.10;6.80;;;;;;;3.13;67.13;101874.85;109825;1242;60297;-80
2023/03/18 04:57:13;;;;;;;13.40;7.30;;;;;;;3.19;66.71;101875.39;109807;1241;62709;-79
2023/03/18 04:59:47;;;;;;;13.60;6.70;;;;;;;3.25;66.54;101879.59;109925;1241;60398;-78
2023/03/18 05:02:16;;;;;;;11.80;6.70;;;;;;;3.28;66.23;101877.26;110092;1241;57225;-78
2023/03/18 05:04:45;;;;;;;12.90;6.50;;;;;;;3.30;67.20;101881.86;110080;1239;62980;-83
2023/03/18 05:07:16;;;;;;;10.40;5.70;;;;;;;3.33;67.00;101879.71;109918;1238;71257;-78
2023/03/18 05:09:53;;;;;;;9.80;6.60;;;;;;;3.33;66.82;101879.55;109783;1245;60407;-78
2023/03/18 05:12:24;;;;;;;10.20;6.20;;;;;;;3.36;66.45;101880.33;110013;1241;62468;-77
2023/03/18 05:14:52;;;;;;;12.60;7.40;;;;;;;3.34;67.79;101882.82;109810;1243;61209;-80
2023/03/18 05:17:21;;;;;;;12.40;7.20;;;;;;;3.35;67.48;101883.30;109989;1239;57759;-79
2023/03/18 05:19:56;;;;;;;12.50;7.10;;;;;;;3.33;68.65;101882.98;109563;1238;367764;-78
2023/03/18 05:22:25;;;;;;;12.90;7.60;;;;;;;3.39;68.35;101884.75;110080;1239;72835;-80
2023/03/18 05:25:00;;;;;;;13.30;6.90;;;;;;;3.44;68.46;101887.73;109797;1238;70239;-80
2023/03/18 05:27:29;;;;;;;11.60;7.80;;;;;;;3.50;68.03;101887.09;109991;1238;74114;-78
2023/03/18 05:30:06;;;;;;;13.40;8.00;;;;;;;3.51;67.80;101887.73;109930;1241;60464;-77
2023/03/18 05:32:41;;;;;;;11.40;7.20;;;;;;;3.49;68.35;101887.63;109904;1242;60560;-79
2023/03/18 05:35:11;;;;;;;14.00;7.60;;;;;;;3.54;68.29;101890.96;109677;1244;74354;-79
2023/03/18 05:37:46;;;;;;;13.00;7.70;;;;;;;3.57;67.80;101891.91;109787;1242;62105;-82
2023/03/18 05:40:16;;;;;;;14.10;7.70;;;;;;;3.57;67.85;101892.08;109921;1238;60108;-79
2023/03/18 05:42:54;;;;;;;10.90;6.90;;;;;;;3.54;69.73;101893.88;109881;1239;73789;-79
2023/03/18 05:45:32;;;;;;;13.00;7.20;;;;;;;3.58;69.38;101892.05;109874;1240;57744;-78
2023/03/18 05:48:05;;;;;;;13.40;6.70;;;;;;;3.63;69.80;101895.36;109903;1241;57737;-78
2023/03/18 05:50:42;;;;;;;15.10;7.30;;;;;;;3.68;70.07;101899.23;109750;1244;62368;-77
2023/03/18 05:53:15;;;;;;;13.00;7.40;;;;;;;3.77;69.12;101900.20;109679;1243;71424;-80
2023/03/18 05:55:44;;;;;;;13.30;7.70;;;;;;;3.80;69.11;101903.89;109707;1243;61485;-79
2023/03/18 05:58:14;;;;;;;14.60;7.60;;;;;;;3.84;68.53;101902.23;109767;1241;73342;-80
2023/03/18 06:00:43;;;;;;;16.50;8.20;;;;;;;3.79;68.82;101905.14;109778;1240;57622;-79
2023/03/18 06:03:12;;;;;;;13.50;7.90;;;;;;;3.80;68.36;101903.90;109899;1241;57668;-81
2023/03/18 06:05:41;;;;;;;14.30;8.20;;;;;;;3.79;68.64;101903.93;109934;1238;63050;-79
2023/03/18 06:08:10;;;;;;;15.20;8.30;;;;;;;3.78;68.33;101903.45;109991;1238;60977;-79
2023/03/18 06:10:39;;;;;;;14.90;7.90;;;;;;;3.77;68.43;101900.55;110045;1238;70431;-77
2023/03/18 06:13:10;;;;;;;16.40;8.20;;;;;;;3.78;68.80;101904.48;109972;1242;73385;-77
2023/03/18 06:15:39;;;;;;;14.20;7.30;;;;;;;3.76;68.92;101906.42;109727;1241;57238;-80
2023/03/18 06:18:08;;;;;;;17.80;8.30;;;;;;;3.76;69.18;101907.09;110059;1238;57689;-78
2023/03/18 06:20:37;;;;;;;14.20;8.10;;;;;;;3.80;69.33;101908.89;110128;1237;73474;-80
2023/03/18 06:23:06;;;;;;;17.90;9.50;;;;;;;3.81;69.63;101909.91;109848;1238;62025;-80
2023/03/18 06:25:35;;;;;;;17.90;9.60;;;;;;;3.83;70.02;101906.26;109986;1238;59057;-79
2023/03/18 06:28:04;;;;;;;15.40;8.80;;;;;;;3.87;70.67;101912.00;110010;1237;63374;-80
2023/03/18 06:30:33;;;;;;;17.60;10.00;;;;;;;4.03;69.77;101911.60;109947;1241;59521;-79
2023/03/18 06:33:02;;;;;;;19.00;9.80;;;;;;;4.11;70.55;101911.05;109957;1238;57653;-80
2023/03/18 06:35:31;;;;;;;17.20;9.30;;;;;;;4.25;70.57;101913.27;109987;1238;62948;-80
2023/03/18 06:38:01;;;;;;;19.90;9.60;;;;;;;4.27;70.02;101919.91;109947;1241;72210;-80
2023/03/18 06:40:31;;;;;;;20.00;9.50;;;;;;;4.28;69.68;101921.08;109964;1238;60639;-82
2023/03/18 06:43:00;;;;;;;17.20;9.30;;;;;;;4.21;69.74;101920.08;109830;1237;62726;-81
2023/03/18 06:45:40;;;;;;;16.90;10.60;;;;;;;4.27;69.27;101917.35;109899;1241;57653;-78
2023/03/18 06:48:10;;;;;;;17.70;9.70;;;;;;;4.24;69.47;101921.04;109738;1238;57772;-79
2023/03/18 06:50:41;;;;;;;18.20;8.80;;;;;;;4.19;69.86;101919.79;109815;1238;73519;-81
2023/03/18 06:53:15;;;;;;;20.10;10.00;;;;;;;4.16;70.26;101927.98;109876;1238;71727;-79
2023/03/18 06:55:44;;;;;;;15.70;9.60;;;;;;;4.19;70.40;101926.70;109740;1238;71597;-84
2023/03/18 06:58:14;;;;;;;18.30;9.70;;;;;;;4.24;70.45;101928.79;109843;1238;73848;-80
2023/03/18 07:00:59;;;;;;;16.70;10.30;;;;;;;4.35;69.97;101927.45;109980;1239;61468;-81
2023/03/18 07:03:31;;;;;;;20.60;10.10;;;;;;;4.46;69.89;101933.04;109717;1238;61648;-80
2023/03/18 07:06:01;;;;;;;14.60;8.90;;;;;;;4.54;69.70;101934.53;109983;1237;63409;-83
2023/03/18 07:08:31;;;;;;;19.40;10.80;;;;;;;4.66;69.14;101929.55;109888;1238;61616;-81
2023/03/18 07:10:59;;;;;;;20.30;10.50;;;;;;;4.70;68.62;101927.51;109793;1238;70429;-80
2023/03/18 07:13:29;;;;;;;16.80;9.80;;;;;;;4.67;68.95;101928.31;109980;1241;73732;-83
2023/03/18 07:15:59;;;;;;;14.30;7.80;;;;;;;4.77;68.67;101928.86;109842;1242;60016;-80
2023/03/18 07:18:28;;;;;;;18.30;10.70;;;;;;;4.79;68.70;101930.73;109726;1238;61582;-77
2023/03/18 07:20:57;;;;;;;19.20;12.10;;;;;;;4.90;68.74;101928.49;110116;1238;74628;-78
2023/03/18 07:23:26;;;;;;;21.10;11.40;;;;;;;4.97;68.40;101928.48;109997;1238;63229;-84
2023/03/18 07:25:57;;;;;;;20.00;12.30;;;;;;;4.94;68.57;101932.38;109940;1238;59950;-80
2023/03/18 07:28:26;;;;;;;23.50;12.60;;;;;;;4.97;68.62;101934.87;109767;1238;63132;-79
2023/03/18 07:30:55;;;;;;;21.20;12.80;;;;;;;5.01;68.64;101936.31;109661;1242;57210;-79
2023/03/18 07:33:24;;;;;;;20.60;12.70;;;;;;;5.09;68.44;101940.23;109997;1239;59585;-80
2023/03/18 07:35:54;;;;;;;23.00;12.00;;;;;;;5.04;68.89;101941.04;109888;1238;74415;-79
2023/03/18 07:38:23;;;;;;;22.00;12.20;;;;;;;5.22;68.31;101943.61;109911;1238;72663;-77
2023/03/18 07:40:51;;;;;;;21.80;13.50;;;;;;;5.21;69.06;101941.58;109752;1238;70004;-82
2023/03/18 07:43:20;;;;;;;25.60;14.30;;;;;;;5.31;68.42;101946.27;109714;1238;72016;-81
2023/03/18 07:45:49;;;;;;;24.00;14.50;;;;;;;5.26;68.58;101943.14;109797;1242;57348;-78
2023/03/18 07:48:18;;;;;;;28.10;15.50;;;;;;;5.22;69.06;101944.64;110011;1238;61596;-81
2023/03/18 07:50:47;;;;;;;25.20;13.90;;;;;;;5.23;70.67;101941.31;110007;1238;73497;-80
2023/03/18 07:53:15;;;;;;;24.10;13.70;;;;;;;5.38;68.76;101936.20;110027;1238;72616;-80
2023/03/18 07:55:45;;;;;;;27.00;14.40;;;;;;;5.38;68.99;101940.19;110060;1238;59856;-82
2023/03/18 07:58:14;;;;;;;24.40;14.70;;;;;;;5.38;69.22;101946.39;109982;1238;73881;-81
2023/03/18 08:00:43;;;;;;;25.70;14.10;;;;;;;5.33;69.33;101946.38;109896;1241;60141;-81
2023/03/18 08:03:13;;;;;;;25.80;14.40;;;;;;;5.29;69.67;101948.75;109663;1238;57710;-80
2023/03/18 08:05:41;;;;;;;26.50;15.90;;;;;;;5.23;70.61;101954.81;109735;1238;73514;-82
2023/03/18 08:08:11;;;;;;;25.80;15.60;;;;;;;5.27;70.61;101957.46;109765;1238;62414;-79
2023/03/18 08:10:41;;;;;;;27.70;14.50;;;;;;;5.33;70.41;101958.48;109907;1238;60694;-82
2023/03/18 08:13:10;;;;;;;22.90;13.60;;;;;;;5.48;69.75;101958.88;109600;1238;73852;-80
2023/03/18 08:15:39;;;;;;;23.00;12.80;;;;;;;5.52;69.68;101957.04;109843;1239;60104;-79
2023/03/18 08:18:08;;;;;;;25.10;14.90;;;;;;;5.56;69.47;101961.38;109836;1237;58130;-80
2023/03/18 08:20:37;;;;;;;24.80;14.20;;;;;;;5.60;68.90;101961.94;109886;1237;62159;-79
2023/03/18 08:23:06;;;;;;;26.00;15.60;;;;;;;5.52;69.75;101963.05;109703;1238;72248;-81
2023/03/18 08:25:35;;;;;;;29.60;17.00;;;;;;;5.50;69.87;101960.86;110041;1238;60635;-82
2023/03/18 08:28:06;;;;;;;32.60;18.10;;;;;;;5.56;69.93;101962.59;109989;1238;63177;-77
2023/03/18 08:30:38;;;;;;;28.70;18.40;;;;;;;5.60;71.20;101965.77;109807;1240;59594;-85
2023/03/18 08:33:07;;;;;;;30.20;16.90;;;;;;;5.70;70.45;101965.79;109637;1238;60805;-87
2023/03/18 08:35:41;;;;;;;32.70;17.50;;;;;;;5.69;70.99;101963.89;109593;1238;73459;-86
2023/03/18 08:38:10;;;;;;;30.40;15.90;;;;;;;5.72;71.20;101958.79;109775;1238;71796;-87
2023/03/18 08:40:41;;;;;;;26.90;16.50;;;;;;;5.73;71.82;101957.58;109798;1238;69939;-88
2023/03/18 08:43:10;;;;;;;32.20;17.70;;;;;;;5.76;71.59;101956.60;109696;1238;73588;-87
2023/03/18 08:45:38;;;;;;;31.90;18.50;;;;;;;5.96;70.86;101956.65;109635;1243;60814;-90
2023/03/18 08:48:08;;;;;;;34.60;18.20;;;;;;;6.16;70.34;101952.55;109888;1237;57219;-85
2023/03/18 08:50:37;;;;;;;31.70;19.00;;;;;;;6.38;69.65;101954.88;110040;1238;62154;-88
2023/03/18 08:53:06;;;;;;;32.30;18.70;;;;;;;6.31;70.37;101951.67;109858;1238;62201;-85
2023/03/18 08:55:36;;;;;;;34.10;17.80;;;;;;;6.60;69.41;101946.48;109860;1238;70493;-85
2023/03/18 08:58:06;;;;;;;30.70;18.20;;;;;;;6.92;68.34;101947.40;110167;1238;62799;-84
2023/03/18 09:00:39;;;;;;;32.30;18.60;;;;;;;6.71;68.16;101939.68;109988;1237;61022;-86
2023/03/18 09:03:08;;;;;;;31.70;18.90;;;;;;;7.02;67.56;101942.68;109914;1238;60284;-86
2023/03/18 09:05:38;;;;;;;31.10;18.50;;;;;;;6.80;67.99;101939.84;109931;1238;65346;-84
2023/03/18 09:08:07;;;;;;;34.10;20.00;;;;;;;6.96;68.05;101942.06;109742;1238;70830;-85
2023/03/18 09:10:36;;;;;;;34.70;19.40;;;;;;;7.08;67.87;101940.71;109923;1237;70953;-81
2023/03/18 09:13:08;;;;;;;30.80;16.50;;;;;;;7.08;68.32;101942.27;109906;1241;62790;-83
2023/03/18 09:15:37;;;;;;;32.70;19.70;;;;;;;7.13;67.66;101950.73;109923;1241;61847;-81
2023/03/18 09:18:07;;;;;;;32.00;19.10;;;;;;;6.80;69.00;101952.86;110115;1241;57707;-86
2023/03/18 09:20:40;;;;;;;39.00;19.40;;;;;;;6.94;68.89;101951.98;109836;1238;73545;-86
2023/03/18 09:23:11;;;;;;;30.30;18.30;;;;;;;7.18;68.38;101951.25;109848;1238;70125;-86
2023/03/18 09:25:42;;;;;;;36.00;18.80;;;;;;;7.45;67.49;101955.05;109864;1238;70016;-86
2023/03/18 09:28:13;;;;;;;35.10;20.00;;;;;;;7.70;66.32;101956.84;109876;1238;73815;-84
2023/03/18 09:30:42;;;;;;;31.90;19.40;;;;;;;7.54;66.31;101954.20;110164;1239;61103;-84
2023/03/18 09:33:11;;;;;;;35.70;19.80;;;;;;;7.59;65.93;101952.77;110057;1238;61654;-83
2023/03/18 09:35:40;;;;;;;36.30;20.70;;;;;;;7.34;66.93;101952.17;110045;1238;63073;-84
2023/03/18 09:38:15;;;;;;;40.00;22.80;;;;;;;7.12;67.92;101953.21;110016;1237;71380;-80
2023/03/18 09:41:09;;;;;;;34.70;20.60;;;;;;;7.25;67.97;101950.29;110181;1238;59486;-84
2023/03/18 09:43:54;;;;;;;34.80;19.30;;;;;;;7.70;66.21;101946.60;110174;1237;73768;-83
2023/03/18 09:46:44;;;;;;;31.60;18.20;;;;;;;7.83;65.89;101945.19;109920;1242;60213;-86
2023/03/18 09:49:33;;;;;;;36.40;19.60;;;;;;;7.64;66.61;101948.92;110090;1238;58069;-87
2023/03/18 09:52:23;;;;;;;33.70;19.10;;;;;;;7.41;67.94;101948.63;110087;1238;73469;-83
2023/03/18 09:55:19;;;;;;;34.90;18.70;;;;;;;7.29;68.59;101952.36;109820;1238;72467;-89
2023/03/18 09:57:52;;;;;;;32.90;18.20;;;;;;;7.63;67.17;101952.95;110064;1238;70354;-83
2023/03/18 10:00:43;;;;;;;49.00;24.00;;;;;;;7.46;68.08;101952.75;110088;1238;74335;-84
2023/03/18 10:03:36;;;;;;;29.80;18.00;;;;;;;7.50;67.78;101952.23;110002;1241;60771;-87
2023/03/18 10:06:08;;;;;;;66.60;36.80;;;;;;;7.84;66.46;101950.02;110137;1238;61515;-84
2023/03/18 10:09:05;;;;;;;30.60;17.70;;;;;;;7.79;66.08;101947.10;110137;1237;73798;-88
2023/03/18 10:11:41;;;;;;;34.50;18.20;;;;;;;8.05;65.74;101947.59;110183;1238;71928;-82
2023/03/18 10:14:36;;;;;;;32.90;20.00;;;;;;;7.84;66.07;101946.72;110157;1239;60315;-82
2023/03/18 10:17:24;;;;;;;33.80;19.40;;;;;;;7.95;65.18;101943.11;110044;1238;73452;-81
2023/03/18 10:19:58;;;;;;;30.70;17.50;;;;;;;7.92;65.60;101941.16;109992;1241;57750;-84
2023/03/18 10:22:39;;;;;;;;;;;;;;;8.13;64.64;101936.44;109786;1242;57247;-82
2023/03/18 10:25:37;;;;;;;39.40;20.50;;;;;;;8.23;64.43;101940.20;109934;1238;72099;-83
2023/03/18 10:28:32;;;;;;;38.80;20.50;;;;;;;8.05;64.62;101938.54;110041;1239;61247;-81
2023/03/18 10:31:39;;;;;;;34.50;18.60;;;;;;;8.14;64.59;101938.33;110112;1237;70493;-84
2023/03/18 10:34:45;;;;;;;35.30;18.40;;;;;;;7.93;64.90;101941.66;110117;1237;63604;-81
2023/03/18 10:37:33;;;;;;;37.20;20.10;;;;;;;8.08;64.20;101932.02;109846;1238;57680;-86
2023/03/18 10:40:14;;;;;;;36.50;20.60;;;;;;;8.02;64.43;101934.84;109975;1238;57717;-84
2023/03/18 10:42:44;;;;;;;33.80;18.50;;;;;;;7.70;66.12;101936.17;109935;1241;62182;-88
2023/03/18 10:45:22;;;;;;;33.30;18.90;;;;;;;7.83;65.48;101933.91;109914;1237;61141;-81
2023/03/18 10:48:24;;;;;;;33.90;20.20;;;;;;;7.71;66.54;101930.42;110073;1238;69742;-88
2023/03/18 10:51:12;;;;;;;36.00;20.10;;;;;;;7.83;65.60;101932.52;109571;1238;74257;-86
2023/03/18 10:54:19;;;;;;;37.50;21.00;;;;;;;7.86;65.42;101929.28;109795;1241;60930;-86
2023/03/18 10:56:49;;;;;;;35.80;19.30;;;;;;;7.72;66.12;101926.94;109975;1239;57694;-83
2023/03/18 10:59:23;;;;;;;32.70;17.90;;;;;;;7.72;65.99;101927.26;109884;1239;63234;-81
2023/03/18 11:02:09;;;;;;;35.00;19.00;;;;;;;7.84;65.21;101924.70;109528;1237;71468;-79
2023/03/18 11:04:50;;;;;;;38.30;19.60;;;;;;;7.91;64.41;101925.42;109879;1238;70001;-78
2023/03/18 11:07:25;;;;;;;38.50;19.70;;;;;;;7.81;64.71;101925.14;109880;1241;73068;-81
2023/03/18 11:09:54;;;;;;;34.20;20.50;;;;;;;7.77;64.97;101922.05;109919;1237;59938;-80
2023/03/18 11:12:28;;;;;;;36.10;20.10;;;;;;;7.61;65.72;101925.81;109789;1238;60752;-79
2023/03/18 11:14:57;;;;;;;36.40;20.70;;;;;;;7.64;65.86;101922.89;110019;1238;72596;-79
2023/03/18 11:17:34;;;;;;;37.20;20.40;;;;;;;7.81;64.97;101919.10;110020;1238;61887;-81
2023/03/18 11:20:43;;;;;;;34.10;19.50;;;;;;;7.84;64.87;101917.73;110066;1237;70476;-81
2023/03/18 11:23:47;;;;;;;36.40;20.20;;;;;;;7.76;65.42;101917.04;109879;1242;63492;-82
2023/03/18 11:26:28;;;;;;;34.80;19.60;;;;;;;7.92;64.71;101913.94;109846;1241;60510;-80
2023/03/18 11:29:09;;;;;;;34.20;18.90;;;;;;;7.95;64.40;101915.73;109931;1238;57536;-80
2023/03/18 11:31:56;;;;;;;34.00;19.80;;;;;;;7.83;64.33;101914.84;109733;1238;73537;-79
2023/03/18 11:34:33;;;;;;;36.20;19.00;;;;;;;7.81;64.56;101913.90;109521;1245;61360;-79
2023/03/18 11:37:07;;;;;;;35.00;19.80;;;;;;;7.97;64.00;101909.92;109977;1241;60010;-78
2023/03/18 11:39:39;;;;;;;36.30;19.40;;;;;;;7.96;64.25;101911.36;109906;1238;73106;-82
2023/03/18 11:42:39;;;;;;;33.30;19.30;;;;;;;8.01;64.39;101908.55;109652;1238;61323;-80